sensor_id;sensor_type;location;lat;lon;timestamp;temperature;humidity
68691;DHT22;55675;49.588;8.640;2023-01-15T00:01:32;12.00;99.30
68691;DHT22;55675;49.588;8.640;2023-01-15T00:04:00;12.00;99.40
68691;DHT22;55675;49.588;8.640;2023-01-15T00:06:28;12.00;99.60
68691;DHT22;55675;49.588;8.640;2023-01-15T00:08:53;11.90;99.70
68691;DHT22;55675;49.588;8.640;2023-01-15T00:11:19;11.90;99.80
68691;DHT22;55675;49.588;8.640;2023-01-15T00:13:45;12.00;99.80
68691;DHT22;55675;49.588;8.640;2023-01-15T00:16:17;11.90;99.90
68691;DHT22;55675;49.588;8.640;2023-01-15T00:18:43;11.90;99.90
68691;DHT22;55675;49.588;8.640;2023-01-15T00:21:09;12.00;99.90
68691;DHT22;55675;49.588;8.640;2023-01-15T00:23:35;12.00;99.90
68691;DHT22;55675;49.588;8.640;2023-01-15T00:26:20;12.00;99.90
68691;DHT22;55675;49.588;8.640;2023-01-15T00:29:04;12.00;99.90
68691;DHT22;55675;49.588;8.640;2023-01-15T00:31:31;12.00;99.90
68691;DHT22;55675;49.588;8.640;2023-01-15T00:33:56;12.00;99.80
68691;DHT22;55675;49.588;8.640;2023-01-15T00:36:22;12.00;99.70
68691;DHT22;55675;49.588;8.640;2023-01-15T00:38:47;12.00;99.70
68691;DHT22;55675;49.588;8.640;2023-01-15T00:41:13;12.00;99.70
68691;DHT22;55675;49.588;8.640;2023-01-15T00:43:38;12.00;99.70
68691;DHT22;55675;49.588;8.640;2023-01-15T00:46:04;12.00;99.70
68691;DHT22;55675;49.588;8.640;2023-01-15T00:48:30;12.00;99.70
68691;DHT22;55675;49.588;8.640;2023-01-15T00:50:56;12.10;99.80
68691;DHT22;55675;49.588;8.640;2023-01-15T00:53:21;12.10;99.80
68691;DHT22;55675;49.588;8.640;2023-01-15T00:55:47;12.10;99.60
68691;DHT22;55675;49.588;8.640;2023-01-15T00:58:12;12.10;99.50
68691;DHT22;55675;49.588;8.640;2023-01-15T01:00:37;12.10;99.50
68691;DHT22;55675;49.588;8.640;2023-01-15T01:03:03;12.10;99.40
68691;DHT22;55675;49.588;8.640;2023-01-15T01:05:29;12.10;99.30
68691;DHT22;55675;49.588;8.640;2023-01-15T01:07:55;12.20;99.30
68691;DHT22;55675;49.588;8.640;2023-01-15T01:10:20;12.10;99.40
68691;DHT22;55675;49.588;8.640;2023-01-15T01:12:46;12.10;99.50
68691;DHT22;55675;49.588;8.640;2023-01-15T01:15:15;12.20;99.50
68691;DHT22;55675;49.588;8.640;2023-01-15T01:17:41;12.20;99.50
68691;DHT22;55675;49.588;8.640;2023-01-15T01:20:06;12.10;99.70
68691;DHT22;55675;49.588;8.640;2023-01-15T01:22:32;12.10;99.80
68691;DHT22;55675;49.588;8.640;2023-01-15T01:24:58;12.10;99.90
68691;DHT22;55675;49.588;8.640;2023-01-15T01:27:23;12.10;99.90
68691;DHT22;55675;49.588;8.640;2023-01-15T01:29:49;12.10;99.90
68691;DHT22;55675;49.588;8.640;2023-01-15T01:32:14;12.10;99.90
68691;DHT22;55675;49.588;8.640;2023-01-15T01:34:40;12.10;99.90
68691;DHT22;55675;49.588;8.640;2023-01-15T01:37:05;12.10;99.90
68691;DHT22;55675;49.588;8.640;2023-01-15T01:39:30;12.10;99.90
68691;DHT22;55675;49.588;8.640;2023-01-15T01:41:56;12.10;99.90
68691;DHT22;55675;49.588;8.640;2023-01-15T01:46:56;12.10;99.90
68691;DHT22;55675;49.588;8.640;2023-01-15T01:49:22;12.00;99.90
68691;DHT22;55675;49.588;8.640;2023-01-15T01:51:53;12.00;99.90
68691;DHT22;55675;49.588;8.640;2023-01-15T01:54:20;12.00;99.90
68691;DHT22;55675;49.588;8.640;2023-01-15T01:56:47;12.00;99.90
68691;DHT22;55675;49.588;8.640;2023-01-15T01:59:13;12.00;99.90
68691;DHT22;55675;49.588;8.640;2023-01-15T02:01:39;12.00;99.90
68691;DHT22;55675;49.588;8.640;2023-01-15T02:04:05;12.00;99.90
68691;DHT22;55675;49.588;8.640;2023-01-15T02:06:32;12.00;99.90
68691;DHT22;55675;49.588;8.640;2023-01-15T02:08:58;12.00;99.90
68691;DHT22;55675;49.588;8.640;2023-01-15T02:11:23;12.00;99.90
68691;DHT22;55675;49.588;8.640;2023-01-15T02:24:16;11.90;99.90
68691;DHT22;55675;49.588;8.640;2023-01-15T02:29:12;11.90;99.90
68691;DHT22;55675;49.588;8.640;2023-01-15T02:31:39;11.90;99.90
68691;DHT22;55675;49.588;8.640;2023-01-15T02:34:10;11.90;99.90
68691;DHT22;55675;49.588;8.640;2023-01-15T02:36:39;11.90;99.90
68691;DHT22;55675;49.588;8.640;2023-01-15T02:39:06;12.00;99.90
68691;DHT22;55675;49.588;8.640;2023-01-15T02:41:35;12.00;99.90
68691;DHT22;55675;49.588;8.640;2023-01-15T02:44:02;12.00;99.90
68691;DHT22;55675;49.588;8.640;2023-01-15T02:46:29;12.00;99.90
68691;DHT22;55675;49.588;8.640;2023-01-15T02:48:56;12.00;99.90
68691;DHT22;55675;49.588;8.640;2023-01-15T02:51:22;12.00;99.90
68691;DHT22;55675;49.588;8.640;2023-01-15T02:56:52;12.00;99.90
68691;DHT22;55675;49.588;8.640;2023-01-15T02:59:21;12.00;99.90
68691;DHT22;55675;49.588;8.640;2023-01-15T03:01:49;11.70;98.20
68691;DHT22;55675;49.588;8.640;2023-01-15T03:04:19;11.40;98.20
68691;DHT22;55675;49.588;8.640;2023-01-15T03:09:31;11.20;98.80
68691;DHT22;55675;49.588;8.640;2023-01-15T03:12:05;11.20;98.40
68691;DHT22;55675;49.588;8.640;2023-01-15T03:14:37;11.10;98.30
68691;DHT22;55675;49.588;8.640;2023-01-15T03:17:07;11.00;98.20
68691;DHT22;55675;49.588;8.640;2023-01-15T03:19:45;11.00;98.30
68691;DHT22;55675;49.588;8.640;2023-01-15T03:22:17;11.00;98.40
68691;DHT22;55675;49.588;8.640;2023-01-15T03:24:45;11.00;98.60
68691;DHT22;55675;49.588;8.640;2023-01-15T03:27:11;11.00;98.40
68691;DHT22;55675;49.588;8.640;2023-01-15T03:29:38;11.00;98.30
68691;DHT22;55675;49.588;8.640;2023-01-15T03:32:05;11.00;98.10
68691;DHT22;55675;49.588;8.640;2023-01-15T03:34:52;11.00;98.30
68691;DHT22;55675;49.588;8.640;2023-01-15T03:37:17;11.10;98.00
68691;DHT22;55675;49.588;8.640;2023-01-15T03:39:42;11.10;97.80
68691;DHT22;55675;49.588;8.640;2023-01-15T03:49:32;11.10;97.30
68691;DHT22;55675;49.588;8.640;2023-01-15T03:54:51;11.10;97.30
68691;DHT22;55675;49.588;8.640;2023-01-15T03:59:58;11.10;97.40
68691;DHT22;55675;49.588;8.640;2023-01-15T04:02:25;11.10;97.50
68691;DHT22;55675;49.588;8.640;2023-01-15T04:04:51;11.10;97.50
68691;DHT22;55675;49.588;8.640;2023-01-15T04:07:17;11.10;97.60
68691;DHT22;55675;49.588;8.640;2023-01-15T04:09:43;11.10;97.60
68691;DHT22;55675;49.588;8.640;2023-01-15T04:12:09;11.10;97.50
68691;DHT22;55675;49.588;8.640;2023-01-15T04:14:34;11.10;97.20
68691;DHT22;55675;49.588;8.640;2023-01-15T04:17:00;11.10;96.70
68691;DHT22;55675;49.588;8.640;2023-01-15T04:19:25;11.00;96.70
68691;DHT22;55675;49.588;8.640;2023-01-15T04:21:51;11.00;95.70
68691;DHT22;55675;49.588;8.640;2023-01-15T04:24:16;10.90;95.70
68691;DHT22;55675;49.588;8.640;2023-01-15T04:26:41;10.90;95.80
68691;DHT22;55675;49.588;8.640;2023-01-15T04:29:07;10.90;95.90
68691;DHT22;55675;49.588;8.640;2023-01-15T04:31:32;10.80;95.60
68691;DHT22;55675;49.588;8.640;2023-01-15T04:34:00;10.80;95.60
68691;DHT22;55675;49.588;8.640;2023-01-15T04:36:25;10.80;95.70
68691;DHT22;55675;49.588;8.640;2023-01-15T04:38:51;10.80;95.80
68691;DHT22;55675;49.588;8.640;2023-01-15T04:41:16;10.80;95.70
68691;DHT22;55675;49.588;8.640;2023-01-15T04:44:00;10.80;95.70
68691;DHT22;55675;49.588;8.640;2023-01-15T04:46:39;10.70;95.00
68691;DHT22;55675;49.588;8.640;2023-01-15T04:49:05;10.70;95.00
68691;DHT22;55675;49.588;8.640;2023-01-15T04:51:31;10.70;95.20
68691;DHT22;55675;49.588;8.640;2023-01-15T04:53:56;10.60;95.20
68691;DHT22;55675;49.588;8.640;2023-01-15T04:56:22;10.60;95.20
68691;DHT22;55675;49.588;8.640;2023-01-15T04:58:47;10.60;95.30
68691;DHT22;55675;49.588;8.640;2023-01-15T05:01:13;10.60;95.40
68691;DHT22;55675;49.588;8.640;2023-01-15T05:03:40;10.60;95.40
68691;DHT22;55675;49.588;8.640;2023-01-15T05:06:05;10.50;95.30
68691;DHT22;55675;49.588;8.640;2023-01-15T05:08:31;10.50;95.20
68691;DHT22;55675;49.588;8.640;2023-01-15T05:11:03;10.50;95.20
68691;DHT22;55675;49.588;8.640;2023-01-15T05:13:29;10.50;95.20
68691;DHT22;55675;49.588;8.640;2023-01-15T05:16:06;10.40;95.00
68691;DHT22;55675;49.588;8.640;2023-01-15T05:18:31;10.40;95.10
68691;DHT22;55675;49.588;8.640;2023-01-15T05:20:56;10.40;95.00
68691;DHT22;55675;49.588;8.640;2023-01-15T05:23:22;10.30;95.30
68691;DHT22;55675;49.588;8.640;2023-01-15T05:25:47;10.30;95.20
68691;DHT22;55675;49.588;8.640;2023-01-15T05:28:13;10.30;95.30
68691;DHT22;55675;49.588;8.640;2023-01-15T05:30:38;10.30;95.30
68691;DHT22;55675;49.588;8.640;2023-01-15T05:33:03;10.30;95.30
68691;DHT22;55675;49.588;8.640;2023-01-15T05:35:29;10.20;95.10
68691;DHT22;55675;49.588;8.640;2023-01-15T05:37:54;10.20;95.00
68691;DHT22;55675;49.588;8.640;2023-01-15T05:40:20;10.10;95.00
68691;DHT22;55675;49.588;8.640;2023-01-15T05:42:45;10.10;95.10
68691;DHT22;55675;49.588;8.640;2023-01-15T05:45:11;10.00;95.10
68691;DHT22;55675;49.588;8.640;2023-01-15T05:47:36;10.00;95.20
68691;DHT22;55675;49.588;8.640;2023-01-15T05:50:01;10.00;95.40
68691;DHT22;55675;49.588;8.640;2023-01-15T05:52:27;10.00;95.30
68691;DHT22;55675;49.588;8.640;2023-01-15T05:54:52;10.00;95.10
68691;DHT22;55675;49.588;8.640;2023-01-15T05:57:18;9.90;95.00
68691;DHT22;55675;49.588;8.640;2023-01-15T05:59:43;9.90;95.20
68691;DHT22;55675;49.588;8.640;2023-01-15T06:02:09;9.90;95.10
68691;DHT22;55675;49.588;8.640;2023-01-15T06:04:34;9.80;95.00
68691;DHT22;55675;49.588;8.640;2023-01-15T06:07:00;9.70;95.20
68691;DHT22;55675;49.588;8.640;2023-01-15T06:09:25;9.60;95.40
68691;DHT22;55675;49.588;8.640;2023-01-15T06:11:52;9.60;95.70
68691;DHT22;55675;49.588;8.640;2023-01-15T06:14:18;9.60;95.90
68691;DHT22;55675;49.588;8.640;2023-01-15T06:16:43;9.60;95.90
68691;DHT22;55675;49.588;8.640;2023-01-15T06:19:10;9.60;96.00
68691;DHT22;55675;49.588;8.640;2023-01-15T06:21:35;9.60;96.20
68691;DHT22;55675;49.588;8.640;2023-01-15T06:24:01;9.60;96.20
68691;DHT22;55675;49.588;8.640;2023-01-15T06:26:27;9.60;96.20
68691;DHT22;55675;49.588;8.640;2023-01-15T06:28:52;9.50;96.30
68691;DHT22;55675;49.588;8.640;2023-01-15T06:31:19;9.50;96.30
68691;DHT22;55675;49.588;8.640;2023-01-15T06:33:45;9.40;96.10
68691;DHT22;55675;49.588;8.640;2023-01-15T06:36:11;9.40;96.00
68691;DHT22;55675;49.588;8.640;2023-01-15T06:38:37;9.30;96.00
68691;DHT22;55675;49.588;8.640;2023-01-15T06:41:04;9.30;95.80
68691;DHT22;55675;49.588;8.640;2023-01-15T06:43:50;9.10;95.50
68691;DHT22;55675;49.588;8.640;2023-01-15T06:46:34;9.10;95.80
68691;DHT22;55675;49.588;8.640;2023-01-15T06:49:18;9.00;96.20
68691;DHT22;55675;49.588;8.640;2023-01-15T06:51:44;9.00;96.30
68691;DHT22;55675;49.588;8.640;2023-01-15T06:54:09;9.00;96.10
68691;DHT22;55675;49.588;8.640;2023-01-15T06:56:34;9.00;96.10
68691;DHT22;55675;49.588;8.640;2023-01-15T06:59:00;8.90;96.20
68691;DHT22;55675;49.588;8.640;2023-01-15T07:01:25;8.90;96.50
68691;DHT22;55675;49.588;8.640;2023-01-15T07:03:55;8.90;96.40
68691;DHT22;55675;49.588;8.640;2023-01-15T07:06:20;8.90;96.50
68691;DHT22;55675;49.588;8.640;2023-01-15T07:08:46;9.00;96.50
68691;DHT22;55675;49.588;8.640;2023-01-15T07:11:11;9.10;96.40
68691;DHT22;55675;49.588;8.640;2023-01-15T07:13:37;9.10;96.10
68691;DHT22;55675;49.588;8.640;2023-01-15T07:16:02;9.10;96.10
68691;DHT22;55675;49.588;8.640;2023-01-15T07:18:28;9.20;96.10
68691;DHT22;55675;49.588;8.640;2023-01-15T07:20:55;9.20;96.10
68691;DHT22;55675;49.588;8.640;2023-01-15T07:23:21;9.30;96.00
68691;DHT22;55675;49.588;8.640;2023-01-15T07:25:47;9.40;96.00
68691;DHT22;55675;49.588;8.640;2023-01-15T07:28:12;9.40;96.00
68691;DHT22;55675;49.588;8.640;2023-01-15T07:30:37;9.40;95.80
68691;DHT22;55675;49.588;8.640;2023-01-15T07:33:03;9.50;95.90
68691;DHT22;55675;49.588;8.640;2023-01-15T07:35:28;9.50;95.90
68691;DHT22;55675;49.588;8.640;2023-01-15T07:37:55;9.50;95.90
68691;DHT22;55675;49.588;8.640;2023-01-15T07:40:20;9.50;95.90
68691;DHT22;55675;49.588;8.640;2023-01-15T07:42:46;9.50;95.90
68691;DHT22;55675;49.588;8.640;2023-01-15T07:45:30;9.50;95.80
68691;DHT22;55675;49.588;8.640;2023-01-15T07:48:14;9.50;95.50
68691;DHT22;55675;49.588;8.640;2023-01-15T07:50:58;9.50;95.60
68691;DHT22;55675;49.588;8.640;2023-01-15T07:53:24;9.40;95.20
68691;DHT22;55675;49.588;8.640;2023-01-15T07:55:49;9.30;95.10
68691;DHT22;55675;49.588;8.640;2023-01-15T07:58:15;9.30;95.40
68691;DHT22;55675;49.588;8.640;2023-01-15T08:00:40;9.10;95.40
68691;DHT22;55675;49.588;8.640;2023-01-15T08:03:06;9.10;95.60
68691;DHT22;55675;49.588;8.640;2023-01-15T08:05:31;8.90;95.70
68691;DHT22;55675;49.588;8.640;2023-01-15T08:07:57;8.90;96.00
68691;DHT22;55675;49.588;8.640;2023-01-15T08:10:22;8.80;96.10
68691;DHT22;55675;49.588;8.640;2023-01-15T08:12:49;8.80;95.70
68691;DHT22;55675;49.588;8.640;2023-01-15T08:15:36;8.70;96.00
68691;DHT22;55675;49.588;8.640;2023-01-15T08:18:02;8.70;96.00
68691;DHT22;55675;49.588;8.640;2023-01-15T08:20:29;8.70;96.00
68691;DHT22;55675;49.588;8.640;2023-01-15T08:22:54;8.70;95.90
68691;DHT22;55675;49.588;8.640;2023-01-15T08:25:21;8.60;95.90
68691;DHT22;55675;49.588;8.640;2023-01-15T08:27:46;8.60;95.90
68691;DHT22;55675;49.588;8.640;2023-01-15T08:30:14;8.60;95.60
68691;DHT22;55675;49.588;8.640;2023-01-15T08:32:39;8.60;95.80
68691;DHT22;55675;49.588;8.640;2023-01-15T08:35:05;8.60;95.90
68691;DHT22;55675;49.588;8.640;2023-01-15T08:37:31;8.70;96.00
68691;DHT22;55675;49.588;8.640;2023-01-15T08:39:56;8.70;95.90
68691;DHT22;55675;49.588;8.640;2023-01-15T08:42:21;8.70;95.70
68691;DHT22;55675;49.588;8.640;2023-01-15T08:44:47;8.70;95.80
68691;DHT22;55675;49.588;8.640;2023-01-15T08:47:13;8.80;95.90
68691;DHT22;55675;49.588;8.640;2023-01-15T08:49:38;8.80;95.90
68691;DHT22;55675;49.588;8.640;2023-01-15T08:52:04;8.80;95.40
68691;DHT22;55675;49.588;8.640;2023-01-15T08:54:29;8.80;95.00
68691;DHT22;55675;49.588;8.640;2023-01-15T08:56:55;8.80;94.30
68691;DHT22;55675;49.588;8.640;2023-01-15T08:59:20;8.70;94.70
68691;DHT22;55675;49.588;8.640;2023-01-15T09:01:46;8.70;95.00
68691;DHT22;55675;49.588;8.640;2023-01-15T09:04:13;8.70;95.30
68691;DHT22;55675;49.588;8.640;2023-01-15T09:06:38;8.70;95.30
68691;DHT22;55675;49.588;8.640;2023-01-15T09:09:04;8.70;95.00
68691;DHT22;55675;49.588;8.640;2023-01-15T09:11:29;8.60;94.90
68691;DHT22;55675;49.588;8.640;2023-01-15T09:13:54;8.60;95.10
68691;DHT22;55675;49.588;8.640;2023-01-15T09:16:20;8.60;95.30
68691;DHT22;55675;49.588;8.640;2023-01-15T09:18:46;8.70;95.40
68691;DHT22;55675;49.588;8.640;2023-01-15T09:21:11;8.70;95.50
68691;DHT22;55675;49.588;8.640;2023-01-15T09:23:36;8.70;95.60
68691;DHT22;55675;49.588;8.640;2023-01-15T09:26:03;8.70;95.60
68691;DHT22;55675;49.588;8.640;2023-01-15T09:28:30;8.70;95.40
68691;DHT22;55675;49.588;8.640;2023-01-15T09:30:56;8.70;95.40
68691;DHT22;55675;49.588;8.640;2023-01-15T09:33:21;8.70;95.20
68691;DHT22;55675;49.588;8.640;2023-01-15T09:35:47;8.70;95.50
68691;DHT22;55675;49.588;8.640;2023-01-15T09:38:13;8.70;94.80
68691;DHT22;55675;49.588;8.640;2023-01-15T09:43:17;8.60;94.50
68691;DHT22;55675;49.588;8.640;2023-01-15T09:45:49;8.60;94.60
68691;DHT22;55675;49.588;8.640;2023-01-15T09:48:23;8.70;94.70
68691;DHT22;55675;49.588;8.640;2023-01-15T09:50:56;8.70;94.70
68691;DHT22;55675;49.588;8.640;2023-01-15T09:53:29;8.70;94.80
68691;DHT22;55675;49.588;8.640;2023-01-15T09:55:56;8.80;94.80
68691;DHT22;55675;49.588;8.640;2023-01-15T09:58:25;8.80;94.60
68691;DHT22;55675;49.588;8.640;2023-01-15T10:00:56;8.80;94.20
68691;DHT22;55675;49.588;8.640;2023-01-15T10:08:23;8.80;94.10
68691;DHT22;55675;49.588;8.640;2023-01-15T10:13:46;8.80;93.30
68691;DHT22;55675;49.588;8.640;2023-01-15T10:16:12;8.80;93.50
68691;DHT22;55675;49.588;8.640;2023-01-15T10:18:41;8.80;93.50
68691;DHT22;55675;49.588;8.640;2023-01-15T10:31:21;8.00;93.20
68691;DHT22;55675;49.588;8.640;2023-01-15T10:33:52;7.50;94.60
68691;DHT22;55675;49.588;8.640;2023-01-15T10:36:28;7.10;95.70
68691;DHT22;55675;49.588;8.640;2023-01-15T10:38:59;6.80;96.10
68691;DHT22;55675;49.588;8.640;2023-01-15T10:46:27;6.30;97.80
68691;DHT22;55675;49.588;8.640;2023-01-15T10:49:18;6.30;98.30
68691;DHT22;55675;49.588;8.640;2023-01-15T10:51:47;6.20;98.30
68691;DHT22;55675;49.588;8.640;2023-01-15T10:56:40;6.10;98.70
68691;DHT22;55675;49.588;8.640;2023-01-15T10:59:20;6.20;99.10
68691;DHT22;55675;49.588;8.640;2023-01-15T11:01:50;6.20;98.90
68691;DHT22;55675;49.588;8.640;2023-01-15T11:04:16;6.20;98.60
68691;DHT22;55675;49.588;8.640;2023-01-15T11:06:42;6.20;98.70
68691;DHT22;55675;49.588;8.640;2023-01-15T11:09:08;6.20;98.90
68691;DHT22;55675;49.588;8.640;2023-01-15T11:11:44;6.20;98.60
68691;DHT22;55675;49.588;8.640;2023-01-15T11:14:36;6.20;97.70
68691;DHT22;55675;49.588;8.640;2023-01-15T11:17:21;6.20;98.40
68691;DHT22;55675;49.588;8.640;2023-01-15T11:20:11;6.20;98.40
68691;DHT22;55675;49.588;8.640;2023-01-15T11:22:38;6.20;98.70
68691;DHT22;55675;49.588;8.640;2023-01-15T11:25:03;6.20;98.50
68691;DHT22;55675;49.588;8.640;2023-01-15T11:27:29;6.30;98.40
68691;DHT22;55675;49.588;8.640;2023-01-15T11:29:57;6.30;98.10
68691;DHT22;55675;49.588;8.640;2023-01-15T11:32:30;6.30;98.00
68691;DHT22;55675;49.588;8.640;2023-01-15T11:35:00;6.30;97.20
68691;DHT22;55675;49.588;8.640;2023-01-15T11:37:26;6.20;97.50
68691;DHT22;55675;49.588;8.640;2023-01-15T11:40:01;6.30;98.20
68691;DHT22;55675;49.588;8.640;2023-01-15T11:42:32;6.30;98.20
68691;DHT22;55675;49.588;8.640;2023-01-15T11:45:19;6.40;98.10
68691;DHT22;55675;49.588;8.640;2023-01-15T11:48:21;6.40;97.50
68691;DHT22;55675;49.588;8.640;2023-01-15T11:53:32;6.40;97.60
68691;DHT22;55675;49.588;8.640;2023-01-15T11:56:04;6.40;97.00
68691;DHT22;55675;49.588;8.640;2023-01-15T11:59:09;6.50;97.00
68691;DHT22;55675;49.588;8.640;2023-01-15T12:01:30;6.60;96.80
68691;DHT22;55675;49.588;8.640;2023-01-15T12:03:57;6.60;96.10
68691;DHT22;55675;49.588;8.640;2023-01-15T12:06:23;6.60;95.90
68691;DHT22;55675;49.588;8.640;2023-01-15T12:08:51;6.60;96.10
68691;DHT22;55675;49.588;8.640;2023-01-15T12:19:29;6.40;96.30
68691;DHT22;55675;49.588;8.640;2023-01-15T12:27:29;6.70;96.90
68691;DHT22;55675;49.588;8.640;2023-01-15T12:30:02;6.80;96.20
68691;DHT22;55675;49.588;8.640;2023-01-15T12:32:30;7.10;96.00
68691;DHT22;55675;49.588;8.640;2023-01-15T12:34:59;7.20;95.90
68691;DHT22;55675;49.588;8.640;2023-01-15T12:37:37;7.50;95.90
68691;DHT22;55675;49.588;8.640;2023-01-15T12:42:42;7.70;95.80
68691;DHT22;55675;49.588;8.640;2023-01-15T12:45:30;7.90;96.10
68691;DHT22;55675;49.588;8.640;2023-01-15T12:50:49;8.10;94.90
68691;DHT22;55675;49.588;8.640;2023-01-15T12:58:18;8.40;94.60
68691;DHT22;55675;49.588;8.640;2023-01-15T13:00:45;8.50;94.30
68691;DHT22;55675;49.588;8.640;2023-01-15T13:03:31;8.70;93.80
68691;DHT22;55675;49.588;8.640;2023-01-15T13:05:57;8.80;93.90
68691;DHT22;55675;49.588;8.640;2023-01-15T13:10:50;9.00;93.30
68691;DHT22;55675;49.588;8.640;2023-01-15T13:21:13;8.90;92.80
68691;DHT22;55675;49.588;8.640;2023-01-15T13:23:43;8.80;92.50
68691;DHT22;55675;49.588;8.640;2023-01-15T13:29:00;8.80;92.90
68691;DHT22;55675;49.588;8.640;2023-01-15T13:31:44;8.80;92.70
68691;DHT22;55675;49.588;8.640;2023-01-15T13:34:18;8.80;92.80
68691;DHT22;55675;49.588;8.640;2023-01-15T13:36:46;8.80;92.60
68691;DHT22;55675;49.588;8.640;2023-01-15T13:39:16;8.90;92.50
68691;DHT22;55675;49.588;8.640;2023-01-15T13:41:45;8.90;92.20
68691;DHT22;55675;49.588;8.640;2023-01-15T13:44:30;9.00;92.30
68691;DHT22;55675;49.588;8.640;2023-01-15T13:47:07;9.00;91.80
68691;DHT22;55675;49.588;8.640;2023-01-15T13:49:34;9.10;92.00
68691;DHT22;55675;49.588;8.640;2023-01-15T13:52:00;9.20;91.10
68691;DHT22;55675;49.588;8.640;2023-01-15T13:54:28;9.20;90.00
68691;DHT22;55675;49.588;8.640;2023-01-15T13:57:08;9.30;90.10
68691;DHT22;55675;49.588;8.640;2023-01-15T13:59:42;9.50;89.40
68691;DHT22;55675;49.588;8.640;2023-01-15T14:02:22;9.70;86.20
68691;DHT22;55675;49.588;8.640;2023-01-15T14:04:47;9.90;85.40
68691;DHT22;55675;49.588;8.640;2023-01-15T14:07:46;10.10;83.80
68691;DHT22;55675;49.588;8.640;2023-01-15T14:10:08;10.10;83.00
68691;DHT22;55675;49.588;8.640;2023-01-15T14:12:38;10.20;82.50
68691;DHT22;55675;49.588;8.640;2023-01-15T14:15:13;10.20;79.90
68691;DHT22;55675;49.588;8.640;2023-01-15T14:17:52;10.30;78.40
68691;DHT22;55675;49.588;8.640;2023-01-15T14:25:22;10.60;79.30
68691;DHT22;55675;49.588;8.640;2023-01-15T14:27:52;10.80;79.70
68691;DHT22;55675;49.588;8.640;2023-01-15T14:35:32;11.10;76.00
68691;DHT22;55675;49.588;8.640;2023-01-15T14:37:59;11.20;75.30
68691;DHT22;55675;49.588;8.640;2023-01-15T14:40:29;11.10;74.90
68691;DHT22;55675;49.588;8.640;2023-01-15T14:42:55;10.90;74.90
68691;DHT22;55675;49.588;8.640;2023-01-15T14:45:35;10.60;75.60
68691;DHT22;55675;49.588;8.640;2023-01-15T14:48:19;10.30;77.40
68691;DHT22;55675;49.588;8.640;2023-01-15T14:50:45;10.20;79.30
68691;DHT22;55675;49.588;8.640;2023-01-15T14:55:47;9.90;80.60
68691;DHT22;55675;49.588;8.640;2023-01-15T14:58:16;9.80;80.10
68691;DHT22;55675;49.588;8.640;2023-01-15T15:00:43;9.60;80.40
68691;DHT22;55675;49.588;8.640;2023-01-15T15:03:16;9.60;82.00
68691;DHT22;55675;49.588;8.640;2023-01-15T15:05:44;9.90;81.90
68691;DHT22;55675;49.588;8.640;2023-01-15T15:08:10;10.60;80.90
68691;DHT22;55675;49.588;8.640;2023-01-15T15:10:38;10.80;78.30
68691;DHT22;55675;49.588;8.640;2023-01-15T15:13:08;10.90;77.30
68691;DHT22;55675;49.588;8.640;2023-01-15T15:15:47;10.80;77.50
68691;DHT22;55675;49.588;8.640;2023-01-15T15:18:19;10.60;77.70
68691;DHT22;55675;49.588;8.640;2023-01-15T15:23:27;10.20;78.80
68691;DHT22;55675;49.588;8.640;2023-01-15T15:25:54;10.00;79.20
68691;DHT22;55675;49.588;8.640;2023-01-15T15:28:20;9.90;80.40
68691;DHT22;55675;49.588;8.640;2023-01-15T15:30:46;9.80;80.60
68691;DHT22;55675;49.588;8.640;2023-01-15T15:33:16;9.70;81.00
68691;DHT22;55675;49.588;8.640;2023-01-15T15:35:43;9.50;81.70
68691;DHT22;55675;49.588;8.640;2023-01-15T15:38:13;9.30;81.80
68691;DHT22;55675;49.588;8.640;2023-01-15T15:40:43;9.20;82.70
68691;DHT22;55675;49.588;8.640;2023-01-15T15:43:13;9.10;83.50
68691;DHT22;55675;49.588;8.640;2023-01-15T15:45:59;9.00;83.90
68691;DHT22;55675;49.588;8.640;2023-01-15T15:48:44;8.90;84.90
68691;DHT22;55675;49.588;8.640;2023-01-15T15:51:24;8.90;85.50
68691;DHT22;55675;49.588;8.640;2023-01-15T15:54:04;8.80;86.50
68691;DHT22;55675;49.588;8.640;2023-01-15T15:56:33;8.80;86.30
68691;DHT22;55675;49.588;8.640;2023-01-15T15:58:59;8.70;86.90
68691;DHT22;55675;49.588;8.640;2023-01-15T16:01:24;8.60;87.40
68691;DHT22;55675;49.588;8.640;2023-01-15T16:03:50;8.60;87.70
68691;DHT22;55675;49.588;8.640;2023-01-15T16:06:18;8.60;87.80
68691;DHT22;55675;49.588;8.640;2023-01-15T16:08:50;8.50;88.00
68691;DHT22;55675;49.588;8.640;2023-01-15T16:11:16;8.60;88.80
68691;DHT22;55675;49.588;8.640;2023-01-15T16:13:43;8.50;88.50
68691;DHT22;55675;49.588;8.640;2023-01-15T16:16:09;8.60;89.00
68691;DHT22;55675;49.588;8.640;2023-01-15T16:18:35;8.60;89.30
68691;DHT22;55675;49.588;8.640;2023-01-15T16:21:07;8.60;89.40
68691;DHT22;55675;49.588;8.640;2023-01-15T16:23:33;8.60;89.40
68691;DHT22;55675;49.588;8.640;2023-01-15T16:26:08;8.60;89.60
68691;DHT22;55675;49.588;8.640;2023-01-15T16:28:37;8.60;90.00
68691;DHT22;55675;49.588;8.640;2023-01-15T16:31:06;8.60;90.00
68691;DHT22;55675;49.588;8.640;2023-01-15T16:33:31;8.60;89.60
68691;DHT22;55675;49.588;8.640;2023-01-15T16:35:57;8.60;89.60
68691;DHT22;55675;49.588;8.640;2023-01-15T16:38:23;8.60;89.80
68691;DHT22;55675;49.588;8.640;2023-01-15T16:40:50;8.60;89.00
68691;DHT22;55675;49.588;8.640;2023-01-15T16:43:16;8.60;88.90
68691;DHT22;55675;49.588;8.640;2023-01-15T16:48:25;8.60;88.20
68691;DHT22;55675;49.588;8.640;2023-01-15T16:50:53;8.60;88.50
68691;DHT22;55675;49.588;8.640;2023-01-15T16:53:27;8.60;88.20
68691;DHT22;55675;49.588;8.640;2023-01-15T16:55:52;8.60;87.90
68691;DHT22;55675;49.588;8.640;2023-01-15T16:58:30;8.70;88.00
68691;DHT22;55675;49.588;8.640;2023-01-15T17:00:56;8.70;88.10
68691;DHT22;55675;49.588;8.640;2023-01-15T17:03:23;8.70;88.00
68691;DHT22;55675;49.588;8.640;2023-01-15T17:05:50;8.70;87.80
68691;DHT22;55675;49.588;8.640;2023-01-15T17:08:19;8.70;87.60
68691;DHT22;55675;49.588;8.640;2023-01-15T17:11:00;8.70;87.00
68691;DHT22;55675;49.588;8.640;2023-01-15T17:13:29;8.70;87.30
68691;DHT22;55675;49.588;8.640;2023-01-15T17:18:27;8.70;86.70
68691;DHT22;55675;49.588;8.640;2023-01-15T17:20:53;8.70;86.00
68691;DHT22;55675;49.588;8.640;2023-01-15T17:23:20;8.70;86.10
68691;DHT22;55675;49.588;8.640;2023-01-15T17:25:47;8.70;85.20
68691;DHT22;55675;49.588;8.640;2023-01-15T17:28:16;8.70;85.50
68691;DHT22;55675;49.588;8.640;2023-01-15T17:30:43;8.70;85.00
68691;DHT22;55675;49.588;8.640;2023-01-15T17:33:11;8.80;84.80
68691;DHT22;55675;49.588;8.640;2023-01-15T17:35:37;8.70;85.10
68691;DHT22;55675;49.588;8.640;2023-01-15T17:38:08;8.80;85.00
68691;DHT22;55675;49.588;8.640;2023-01-15T17:40:36;8.80;84.60
68691;DHT22;55675;49.588;8.640;2023-01-15T17:43:03;8.80;84.60
68691;DHT22;55675;49.588;8.640;2023-01-15T17:45:29;8.80;84.20
68691;DHT22;55675;49.588;8.640;2023-01-15T17:47:55;8.80;83.70
68691;DHT22;55675;49.588;8.640;2023-01-15T17:50:20;8.80;83.30
68691;DHT22;55675;49.588;8.640;2023-01-15T17:52:46;8.80;83.30